Time;durP1;ratioP1;P1;durP2;ratioP2;P2;SDS_P1;SDS_P2;PMS_P1;PMS_P2;Temp;Humidity;BMP_temperature;BMP_pressure;BME280_temperature;BME280_humidity;BME280_pressure;Samples;Min_cycle;Max_cycle;Signal;HPM_P1;HPM_P2
2020/12/29 00:02:24;;;;;;;38.10;22.67;;;4.00;99.90;;;;;;5120046;27;38133;-76
2020/12/29 00:04:50;;;;;;;44.23;26.00;;;3.90;99.90;;;;;;5120771;27;38072;-74
2020/12/29 00:07:16;;;;;;;43.57;27.03;;;3.90;99.90;;;;;;5128993;27;38898;-75
2020/12/29 00:09:42;;;;;;;36.13;22.23;;;3.80;99.90;;;;;;5119379;27;39142;-75
2020/12/29 00:12:08;;;;;;;37.57;22.10;;;3.70;99.90;;;;;;5120701;27;37935;-75
2020/12/29 00:14:34;;;;;;;29.97;19.60;;;3.80;99.90;;;;;;5113792;27;38183;-75
2020/12/29 00:17:00;;;;;;;33.03;21.57;;;3.80;99.90;;;;;;5121693;27;38413;-76
2020/12/29 00:19:28;;;;;;;20.47;16.03;;;3.80;99.90;;;;;;5121680;27;40949;-74
2020/12/29 00:21:54;;;;;;;38.77;22.27;;;3.80;99.90;;;;;;5118308;27;38573;-74
2020/12/29 00:24:20;;;;;;;35.63;21.40;;;3.90;99.90;;;;;;5120935;27;37773;-75
2020/12/29 00:26:47;;;;;;;29.27;17.87;;;4.00;99.90;;;;;;5117740;27;40521;-75
2020/12/29 00:29:13;;;;;;;59.23;31.67;;;4.00;99.90;;;;;;5123137;27;39815;-77
2020/12/29 00:31:39;;;;;;;38.33;24.50;;;4.10;99.90;;;;;;5118768;27;38093;-75
2020/12/29 00:34:05;;;;;;;40.30;23.50;;;4.10;99.90;;;;;;5121907;27;37398;-76
2020/12/29 00:36:32;;;;;;;32.70;22.00;;;4.10;99.90;;;;;;5123120;27;40592;-77
2020/12/29 00:38:58;;;;;;;23.83;17.87;;;4.10;99.90;;;;;;5122347;27;39027;-75
2020/12/29 00:41:24;;;;;;;33.37;22.33;;;4.10;99.90;;;;;;5118135;27;38108;-75
2020/12/29 00:43:51;;;;;;;24.43;17.90;;;4.10;99.90;;;;;;5120611;27;38127;-76
2020/12/29 00:46:19;;;;;;;38.73;24.20;;;4.10;99.90;;;;;;5130946;27;40242;-76
2020/12/29 00:48:46;;;;;;;41.13;23.57;;;4.10;99.90;;;;;;5118468;27;39247;-75
2020/12/29 00:51:18;;;;;;;46.00;26.03;;;4.10;99.90;;;;;;5110376;27;39410;-76
2020/12/29 00:53:45;;;;;;;50.60;26.75;;;4.10;99.90;;;;;;5120051;27;39253;-75
2020/12/29 00:56:11;;;;;;;46.03;27.20;;;4.20;99.90;;;;;;5124211;27;38716;-75
2020/12/29 00:58:38;;;;;;;38.50;24.80;;;4.20;99.90;;;;;;5118693;27;38896;-74
2020/12/29 01:01:06;;;;;;;44.43;26.20;;;4.30;99.90;;;;;;5117296;27;38351;-75
2020/12/29 01:03:32;;;;;;;41.93;25.23;;;4.30;99.90;;;;;;5122266;27;39057;-76
2020/12/29 01:05:59;;;;;;;55.03;27.90;;;4.30;99.90;;;;;;5118037;27;41091;-75
2020/12/29 01:08:25;;;;;;;50.13;25.83;;;4.30;99.90;;;;;;5122749;27;38431;-74
2020/12/29 01:10:55;;;;;;;46.37;26.27;;;4.30;99.90;;;;;;5125088;27;38566;-74
2020/12/29 01:13:22;;;;;;;55.20;28.23;;;4.40;99.90;;;;;;5119088;27;38038;-77
2020/12/29 01:15:51;;;;;;;57.23;28.93;;;4.40;99.90;;;;;;5118660;27;40750;-78
2020/12/29 01:18:17;;;;;;;60.73;29.70;;;4.40;99.90;;;;;;5121341;27;38230;-77
2020/12/29 01:20:44;;;;;;;58.07;29.30;;;4.40;99.90;;;;;;5120725;27;38915;-77
2020/12/29 01:23:11;;;;;;;38.30;25.57;;;4.40;99.90;;;;;;5124140;27;38333;-75
2020/12/29 01:25:40;;;;;;;64.37;31.57;;;4.40;99.90;;;;;;5121115;27;38769;-75
2020/12/29 01:28:07;;;;;;;50.90;28.53;;;4.40;99.90;;;;;;5118098;27;39634;-77
2020/12/29 01:30:33;;;;;;;40.47;25.97;;;4.50;99.90;;;;;;5119993;27;38852;-76
2020/12/29 01:32:59;;;;;;;40.87;26.27;;;4.40;99.90;;;;;;5121222;27;38443;-77
2020/12/29 01:35:25;;;;;;;51.13;30.07;;;4.40;99.90;;;;;;5122988;27;38765;-75
2020/12/29 01:37:51;;;;;;;60.80;33.40;;;4.40;99.90;;;;;;5117987;27;38282;-76
2020/12/29 01:40:17;;;;;;;48.37;29.67;;;4.40;99.90;;;;;;5125622;27;37818;-75
2020/12/29 01:42:45;;;;;;;48.23;28.23;;;4.40;99.90;;;;;;5123285;27;38019;-74
2020/12/29 01:45:15;;;;;;;42.53;27.43;;;4.40;99.90;;;;;;5123371;27;38857;-75
2020/12/29 01:47:42;;;;;;;32.63;23.37;;;4.50;99.90;;;;;;5123554;27;38338;-74
2020/12/29 01:50:34;;;;;;;35.20;24.67;;;4.50;99.90;;;;;;5120915;27;38622;-77
2020/12/29 01:53:02;;;;;;;61.13;32.77;;;4.50;99.90;;;;;;5118607;27;38999;-77
2020/12/29 01:55:29;;;;;;;57.60;31.50;;;4.50;99.90;;;;;;5122687;27;47592;-75
2020/12/29 01:57:58;;;;;;;73.47;36.17;;;4.50;99.90;;;;;;5124540;27;38565;-76
2020/12/29 02:00:25;;;;;;;64.40;33.80;;;4.60;99.90;;;;;;5126189;27;38741;-75
2020/12/29 02:02:51;;;;;;;70.67;34.77;;;4.60;99.90;;;;;;5127772;27;38376;-76
2020/12/29 02:05:17;;;;;;;55.87;31.40;;;4.60;99.90;;;;;;5139453;27;39631;-77
2020/12/29 02:07:48;;;;;;;44.27;27.10;;;4.60;99.90;;;;;;5124743;27;37880;-75
2020/12/29 02:10:14;;;;;;;68.30;35.70;;;4.60;99.90;;;;;;5120253;27;37341;-76
2020/12/29 02:12:40;;;;;;;72.03;36.63;;;4.60;99.90;;;;;;5123075;27;37530;-75
2020/12/29 02:15:08;;;;;;;70.07;35.37;;;4.50;99.90;;;;;;5124739;27;37678;-77
2020/12/29 02:17:34;;;;;;;75.43;36.73;;;4.50;99.90;;;;;;5123948;27;38332;-77
2020/12/29 02:20:00;;;;;;;83.80;37.37;;;4.50;99.90;;;;;;5121237;27;38075;-77
2020/12/29 02:22:27;;;;;;;93.77;40.13;;;4.50;99.90;;;;;;5120175;27;38875;-78
2020/12/29 02:24:56;;;;;;;81.10;40.00;;;4.50;99.90;;;;;;5124442;27;38826;-78
2020/12/29 02:27:26;;;;;;;41.80;27.93;;;4.60;99.90;;;;;;5122602;27;39174;-77
2020/12/29 02:29:53;;;;;;;121.50;42.30;;;4.60;99.90;;;;;;5119075;27;38671;-76
2020/12/29 02:32:23;;;;;;;85.07;38.13;;;4.60;99.90;;;;;;5123535;27;37194;-77
2020/12/29 02:34:49;;;;;;;36.37;24.60;;;4.60;99.90;;;;;;5123354;27;39687;-77
2020/12/29 02:37:16;;;;;;;33.27;24.47;;;4.50;99.90;;;;;;5123940;27;39378;-78
2020/12/29 02:39:44;;;;;;;40.43;26.57;;;4.50;99.90;;;;;;5121542;27;38511;-78
2020/12/29 02:42:11;;;;;;;59.70;30.33;;;4.40;99.90;;;;;;5118279;27;38350;-75
2020/12/29 02:44:37;;;;;;;62.27;30.00;;;4.40;99.90;;;;;;5124045;27;39588;-75
2020/12/29 02:47:04;;;;;;;47.77;26.70;;;4.40;99.90;;;;;;5121504;27;39632;-78
2020/12/29 02:49:34;;;;;;;34.93;22.20;;;4.40;99.90;;;;;;5119062;27;38389;-76
2020/12/29 02:52:01;;;;;;;32.33;22.03;;;4.40;99.90;;;;;;5126428;27;36192;-75
2020/12/29 02:54:27;;;;;;;30.63;20.93;;;4.30;99.90;;;;;;5127701;27;47360;-75
2020/12/29 02:56:54;;;;;;;29.27;20.30;;;4.30;99.90;;;;;;5148158;27;38364;-77
2020/12/29 02:59:22;;;;;;;61.10;28.33;;;4.30;99.90;;;;;;5146412;27;37840;-76
2020/12/29 03:01:48;;;;;;;33.40;21.43;;;4.30;99.90;;;;;;5139719;27;37174;-76
2020/12/29 03:04:15;;;;;;;27.53;18.87;;;4.30;99.90;;;;;;5140003;27;38757;-76
2020/12/29 03:06:41;;;;;;;26.93;19.50;;;4.20;99.90;;;;;;5139588;27;38348;-78
2020/12/29 03:09:07;;;;;;;45.47;24.33;;;4.20;99.90;;;;;;5141582;27;37685;-75
2020/12/29 03:11:34;;;;;;;34.43;20.90;;;4.20;99.90;;;;;;5143191;27;38447;-76
2020/12/29 03:14:02;;;;;;;32.97;21.53;;;4.20;99.90;;;;;;5124432;27;39362;-76
2020/12/29 03:16:28;;;;;;;33.23;20.50;;;4.30;99.90;;;;;;5136865;27;48780;-77
2020/12/29 03:18:55;;;;;;;32.80;20.83;;;4.20;99.90;;;;;;5126592;27;38478;-76
2020/12/29 03:21:22;;;;;;;24.67;17.30;;;4.20;99.90;;;;;;5123264;27;38953;-79
2020/12/29 03:23:48;;;;;;;22.90;16.73;;;4.20;99.90;;;;;;5141810;27;36738;-79
2020/12/29 03:26:17;;;;;;;37.53;21.63;;;4.20;99.90;;;;;;5127929;27;40172;-76
2020/12/29 03:28:44;;;;;;;23.33;17.33;;;4.20;99.90;;;;;;5137092;27;38065;-74
2020/12/29 03:31:11;;;;;;;30.60;19.30;;;4.10;99.90;;;;;;5123765;27;37427;-79
2020/12/29 03:33:38;;;;;;;37.50;21.30;;;4.10;99.90;;;;;;5117305;27;39224;-75
2020/12/29 03:36:04;;;;;;;30.33;19.63;;;4.10;99.90;;;;;;5120627;27;39148;-75
2020/12/29 03:38:30;;;;;;;37.10;21.63;;;4.10;99.90;;;;;;5125435;27;38071;-75
2020/12/29 03:40:56;;;;;;;70.80;28.77;;;4.10;99.90;;;;;;5124859;27;39046;-76
2020/12/29 03:43:23;;;;;;;35.73;21.03;;;4.10;99.90;;;;;;5123911;27;39389;-75
2020/12/29 03:45:50;;;;;;;42.90;23.43;;;4.10;99.90;;;;;;5147128;27;38320;-75
2020/12/29 03:48:19;;;;;;;39.13;21.93;;;4.10;99.90;;;;;;5141378;27;37874;-75
2020/12/29 03:50:46;;;;;;;37.80;22.57;;;4.10;99.90;;;;;;5143150;27;38776;-77
2020/12/29 03:53:12;;;;;;;40.37;23.17;;;4.10;99.90;;;;;;5119633;27;40777;-76
2020/12/29 03:55:38;;;;;;;33.93;21.40;;;4.10;99.90;;;;;;5121273;27;36893;-79
2020/12/29 03:58:05;;;;;;;52.37;27.10;;;4.10;99.90;;;;;;5122999;27;39482;-75
2020/12/29 04:00:31;;;;;;;36.50;23.27;;;4.10;99.90;;;;;;5115040;27;37323;-75
2020/12/29 04:02:57;;;;;;;41.77;24.77;;;4.10;99.90;;;;;;5124958;27;38638;-75
2020/12/29 04:05:23;;;;;;;35.83;23.13;;;4.10;99.90;;;;;;5121563;27;37752;-75
2020/12/29 04:07:49;;;;;;;51.70;27.10;;;4.10;99.90;;;;;;5122773;27;39651;-76
2020/12/29 04:10:16;;;;;;;41.07;24.33;;;4.10;99.90;;;;;;5123067;27;38112;-77
2020/12/29 04:12:42;;;;;;;46.17;26.63;;;4.10;99.90;;;;;;5120489;27;38471;-78
2020/12/29 04:15:08;;;;;;;50.20;27.57;;;4.10;99.90;;;;;;5117456;27;38743;-78
2020/12/29 04:17:36;;;;;;;42.00;25.27;;;4.10;99.90;;;;;;5115392;27;37938;-76
2020/12/29 04:20:07;;;;;;;54.27;29.67;;;4.00;99.90;;;;;;5114440;27;36265;-74
2020/12/29 04:22:35;;;;;;;46.57;26.70;;;4.00;99.90;;;;;;5116505;27;38024;-75
2020/12/29 04:25:02;;;;;;;53.23;28.63;;;4.00;99.90;;;;;;5116900;27;38033;-75
2020/12/29 04:27:28;;;;;;;36.60;23.10;;;4.00;99.90;;;;;;5119473;27;48874;-77
2020/12/29 04:29:54;;;;;;;44.80;26.53;;;4.00;99.90;;;;;;5117849;27;39580;-77
2020/12/29 04:32:21;;;;;;;52.80;27.60;;;4.00;99.90;;;;;;5120974;27;39342;-77
2020/12/29 04:34:47;;;;;;;54.23;28.80;;;4.00;99.90;;;;;;5122095;27;39788;-78
2020/12/29 04:37:14;;;;;;;58.63;29.17;;;4.00;99.90;;;;;;5117988;27;37518;-75
2020/12/29 04:39:40;;;;;;;52.20;28.77;;;4.00;99.90;;;;;;5117691;27;38355;-76
2020/12/29 04:42:11;;;;;;;40.17;24.37;;;4.00;99.90;;;;;;5118773;27;39912;-76
2020/12/29 04:44:39;;;;;;;42.30;25.40;;;4.00;99.90;;;;;;5118892;27;38219;-76
2020/12/29 04:47:10;;;;;;;41.10;24.77;;;4.00;99.90;;;;;;5131474;27;38133;-76
2020/12/29 04:49:37;;;;;;;42.17;26.13;;;3.90;99.90;;;;;;5119423;27;38369;-77
2020/12/29 04:52:05;;;;;;;37.57;23.07;;;3.90;99.90;;;;;;5121206;27;39236;-77
2020/12/29 04:54:34;;;;;;;60.23;29.10;;;3.90;99.90;;;;;;5140908;27;38571;-78
2020/12/29 04:57:01;;;;;;;56.53;27.97;;;3.90;99.90;;;;;;5119694;27;39865;-77
2020/12/29 04:59:29;;;;;;;57.60;29.27;;;3.90;99.90;;;;;;5114514;27;47311;-75
2020/12/29 05:01:56;;;;;;;56.13;28.33;;;4.00;99.90;;;;;;5110537;27;39456;-78
2020/12/29 05:04:23;;;;;;;39.50;24.43;;;4.00;99.90;;;;;;5117459;27;38195;-75
2020/12/29 05:06:53;;;;;;;47.63;26.80;;;4.00;99.90;;;;;;5116863;27;37633;-77
2020/12/29 05:09:20;;;;;;;37.77;23.13;;;4.00;99.90;;;;;;5131922;27;37952;-77
2020/12/29 05:11:46;;;;;;;39.97;23.57;;;3.90;99.90;;;;;;5114687;27;40453;-75
2020/12/29 05:14:13;;;;;;;53.80;27.57;;;4.00;99.90;;;;;;5118319;27;38538;-76
2020/12/29 05:16:39;;;;;;;42.33;23.87;;;4.00;99.90;;;;;;5106401;27;38999;-77
2020/12/29 05:19:10;;;;;;;42.17;24.90;;;4.00;99.90;;;;;;5108266;27;37663;-77
2020/12/29 05:21:38;;;;;;;68.83;32.23;;;4.00;99.90;;;;;;5111733;27;40130;-75
2020/12/29 05:24:19;;;;;;;49.43;26.37;;;4.00;99.90;;;;;;5110227;27;37081;-76
2020/12/29 05:27:04;;;;;;;57.93;29.47;;;4.00;99.90;;;;;;5125774;27;37982;-76
2020/12/29 05:29:31;;;;;;;55.37;28.43;;;4.00;99.90;;;;;;5119160;27;48917;-75
2020/12/29 05:31:57;;;;;;;64.03;29.10;;;4.00;99.90;;;;;;5102279;27;39742;-79
2020/12/29 05:34:25;;;;;;;51.97;26.67;;;4.00;99.90;;;;;;5120676;27;38209;-78
2020/12/29 05:36:52;;;;;;;38.27;23.17;;;4.00;99.90;;;;;;5119116;27;37585;-74
2020/12/29 05:39:23;;;;;;;31.17;20.77;;;3.90;99.90;;;;;;5124139;27;36030;-76
2020/12/29 05:41:53;;;;;;;42.20;23.50;;;3.90;99.90;;;;;;5097860;27;40204;-74
2020/12/29 05:44:26;;;;;;;66.60;30.73;;;3.90;99.90;;;;;;5102167;27;41554;-74
2020/12/29 05:46:53;;;;;;;58.60;27.83;;;3.90;99.90;;;;;;5121938;27;38720;-77
2020/12/29 05:49:20;;;;;;;53.33;27.13;;;3.90;99.90;;;;;;5116848;27;37258;-75
2020/12/29 05:51:51;;;;;;;53.67;26.43;;;3.90;99.90;;;;;;5117481;27;39804;-77
2020/12/29 05:54:21;;;;;;;55.40;27.87;;;3.80;99.90;;;;;;5120685;27;41265;-77
2020/12/29 05:56:48;;;;;;;46.13;24.30;;;3.80;99.90;;;;;;5104170;27;40973;-77
2020/12/29 05:59:15;;;;;;;31.17;19.13;;;3.80;99.90;;;;;;5100181;27;37563;-77
2020/12/29 06:01:42;;;;;;;41.53;22.80;;;3.80;99.90;;;;;;5128926;27;39374;-77
2020/12/29 06:04:12;;;;;;;39.40;22.37;;;3.70;99.90;;;;;;5137029;27;38952;-78
2020/12/29 06:06:40;;;;;;;42.40;23.83;;;3.80;99.90;;;;;;5122969;27;38090;-76
2020/12/29 06:09:33;;;;;;;38.20;22.80;;;3.70;99.90;;;;;;5142622;27;37581;-77
2020/12/29 06:11:59;;;;;;;30.17;19.70;;;3.70;99.90;;;;;;5141338;27;39100;-78
2020/12/29 06:14:26;;;;;;;40.30;22.50;;;3.70;99.90;;;;;;5142983;27;39104;-76
2020/12/29 06:16:56;;;;;;;44.33;23.60;;;3.70;99.90;;;;;;5132689;27;38618;-77
2020/12/29 06:19:27;;;;;;;60.77;28.40;;;3.80;99.90;;;;;;5138493;27;36989;-74
2020/12/29 06:22:02;;;;;;;39.77;22.17;;;3.80;99.90;;;;;;5128872;27;37777;-77
2020/12/29 06:24:29;;;;;;;34.87;21.83;;;3.80;99.90;;;;;;5138311;27;48646;-78
2020/12/29 06:26:59;;;;;;;35.90;21.63;;;3.80;99.90;;;;;;5141259;27;38115;-76
2020/12/29 06:29:31;;;;;;;43.30;22.67;;;3.70;99.90;;;;;;5137068;27;35037;-74
2020/12/29 06:31:57;;;;;;;39.10;23.03;;;3.70;99.90;;;;;;5140899;27;40641;-78
2020/12/29 06:34:23;;;;;;;64.17;27.20;;;3.60;99.90;;;;;;5138099;27;38570;-77
2020/12/29 06:36:53;;;;;;;50.90;24.07;;;3.50;99.90;;;;;;5121586;27;39193;-75
2020/12/29 06:39:21;;;;;;;42.73;23.03;;;3.50;99.90;;;;;;5138442;27;37900;-74
2020/12/29 06:41:49;;;;;;;57.30;26.80;;;3.50;99.90;;;;;;5136309;27;38465;-78
2020/12/29 06:44:16;;;;;;;60.47;27.93;;;3.40;99.90;;;;;;5136820;27;38220;-77
2020/12/29 06:46:55;;;;;;;47.00;24.03;;;3.50;99.90;;;;;;5139504;27;37420;-77
2020/12/29 06:49:22;;;;;;;52.63;24.27;;;3.50;99.90;;;;;;5121417;27;37639;-78
2020/12/29 06:52:13;;;;;;;45.37;22.60;;;3.50;99.90;;;;;;5121900;27;39804;-77
2020/12/29 06:54:53;;;;;;;89.13;29.50;;;3.60;99.90;;;;;;5139079;27;47279;-77
2020/12/29 06:57:52;;;;;;;33.00;19.47;;;3.60;99.90;;;;;;5121871;27;39647;-74
2020/12/29 07:00:19;;;;;;;44.97;23.20;;;3.70;99.90;;;;;;5136908;27;37529;-77
2020/12/29 07:02:48;;;;;;;38.93;21.67;;;3.80;99.90;;;;;;5139963;27;38964;-77
2020/12/29 07:05:34;;;;;;;27.43;17.20;;;3.80;99.90;;;;;;5122463;27;38871;-74
2020/12/29 07:08:03;;;;;;;55.57;24.93;;;3.90;99.90;;;;;;5139787;27;38865;-77
2020/12/29 07:10:34;;;;;;;39.83;22.30;;;3.90;99.90;;;;;;5112902;27;47148;-78
2020/12/29 07:13:10;;;;;;;47.90;23.20;;;3.90;99.90;;;;;;5101774;27;37863;-74
2020/12/29 07:15:50;;;;;;;31.80;19.53;;;4.00;99.90;;;;;;5120011;27;46005;-74
2020/12/29 07:18:23;;;;;;;29.07;19.07;;;4.00;99.90;;;;;;5130207;27;40067;-74
2020/12/29 07:20:51;;;;;;;28.80;18.87;;;4.00;99.90;;;;;;5115714;27;36815;-75
2020/12/29 07:23:19;;;;;;;51.10;25.60;;;4.00;99.90;;;;;;5124804;27;38970;-75
2020/12/29 07:25:53;;;;;;;54.53;25.27;;;4.00;99.90;;;;;;5107442;27;41119;-74
2020/12/29 07:28:24;;;;;;;50.07;26.67;;;4.10;99.90;;;;;;5101959;27;38714;-77
2020/12/29 07:30:51;;;;;;;87.50;33.47;;;4.10;99.90;;;;;;5109371;27;38582;-77
2020/12/29 07:33:22;;;;;;;55.47;30.13;;;4.10;99.90;;;;;;5124098;27;38822;-74
2020/12/29 07:35:49;;;;;;;70.50;34.73;;;4.20;99.90;;;;;;5104852;27;37170;-75
2020/12/29 07:38:20;;;;;;;59.80;31.30;;;4.20;99.90;;;;;;5132145;27;37215;-76
2020/12/29 07:40:47;;;;;;;82.77;37.20;;;4.20;99.90;;;;;;5116789;27;37381;-77
2020/12/29 07:43:13;;;;;;;67.83;33.90;;;4.30;99.90;;;;;;5117920;27;37589;-77
2020/12/29 07:45:39;;;;;;;64.73;32.40;;;4.30;99.90;;;;;;5142213;27;38102;-75
2020/12/29 07:48:07;;;;;;;69.43;35.93;;;4.30;99.90;;;;;;5118135;27;36661;-75
2020/12/29 07:50:35;;;;;;;74.30;35.73;;;4.30;99.90;;;;;;5141572;27;38154;-76
2020/12/29 07:53:03;;;;;;;68.73;32.93;;;4.30;99.90;;;;;;5117402;27;38611;-76
2020/12/29 07:55:29;;;;;;;85.67;37.27;;;4.30;99.90;;;;;;5137658;27;47956;-76
2020/12/29 07:57:56;;;;;;;84.47;37.13;;;4.30;99.90;;;;;;5149393;27;37979;-74
2020/12/29 08:00:22;;;;;;;80.47;36.77;;;4.40;99.90;;;;;;5119488;27;37913;-74
2020/12/29 08:02:51;;;;;;;79.33;35.70;;;4.40;99.90;;;;;;5121906;27;38699;-75
2020/12/29 08:05:20;;;;;;;81.10;36.83;;;4.40;99.90;;;;;;5114693;27;37375;-75
2020/12/29 08:07:58;;;;;;;72.80;35.07;;;4.40;99.90;;;;;;5120820;27;38383;-75
2020/12/29 08:10:26;;;;;;;55.07;32.27;;;4.40;99.90;;;;;;5136886;27;37500;-76
2020/12/29 08:12:57;;;;;;;95.97;42.80;;;4.50;99.90;;;;;;5125019;27;39773;-76
2020/12/29 08:15:37;;;;;;;41.17;26.83;;;4.50;99.90;;;;;;5118502;27;41342;-75
2020/12/29 08:18:19;;;;;;;42.07;26.70;;;4.50;99.90;;;;;;5139349;27;36762;-76
2020/12/29 08:20:47;;;;;;;36.35;26.00;;;4.50;99.90;;;;;;5136167;27;38087;-77
2020/12/29 08:23:18;;;;;;;54.33;31.70;;;4.50;99.90;;;;;;5135336;27;41178;-74
2020/12/29 08:25:55;;;;;;;45.03;27.63;;;4.50;99.90;;;;;;5117512;27;38954;-75
2020/12/29 08:28:27;;;;;;;53.33;30.97;;;4.50;99.90;;;;;;5124519;27;38184;-77
2020/12/29 08:31:00;;;;;;;50.10;30.87;;;4.50;99.90;;;;;;5118879;27;38924;-77
2020/12/29 08:33:29;;;;;;;49.17;31.17;;;4.60;99.90;;;;;;5118375;27;46911;-75
2020/12/29 08:35:57;;;;;;;56.90;35.67;;;4.60;99.90;;;;;;5124304;27;38995;-74
2020/12/29 08:38:47;;;;;;;65.30;37.20;;;4.60;99.90;;;;;;5120319;27;37988;-77
2020/12/29 08:41:24;;;;;;;52.13;33.60;;;4.70;99.90;;;;;;5121941;27;38393;-77
2020/12/29 08:43:52;;;;;;;55.17;32.87;;;4.80;99.90;;;;;;5141428;27;39335;-74
2020/12/29 08:46:20;;;;;;;49.87;32.90;;;4.70;99.90;;;;;;5133591;27;37351;-76
2020/12/29 08:48:57;;;;;;;46.23;29.03;;;4.80;99.90;;;;;;5140663;27;38500;-76
2020/12/29 08:51:44;;;;;;;67.90;38.10;;;4.80;99.90;;;;;;5141433;27;38404;-74
2020/12/29 08:54:17;;;;;;;55.63;35.43;;;4.80;99.90;;;;;;5122563;27;39517;-77
2020/12/29 08:56:43;;;;;;;59.93;37.13;;;4.90;99.90;;;;;;5125379;27;40094;-75
2020/12/29 08:59:10;;;;;;;79.13;46.23;;;4.90;99.90;;;;;;5136970;27;37680;-77
2020/12/29 09:01:44;;;;;;;49.70;33.13;;;4.90;99.90;;;;;;5123837;27;38479;-77
2020/12/29 09:04:30;;;;;;;40.43;28.53;;;4.90;99.90;;;;;;5117190;27;40631;-76
2020/12/29 09:07:06;;;;;;;58.23;38.57;;;4.90;99.90;;;;;;5139662;27;40191;-77
2020/12/29 09:09:38;;;;;;;40.17;28.17;;;5.00;99.90;;;;;;5124129;27;47414;-78
2020/12/29 09:12:04;;;;;;;42.45;29.48;;;5.10;99.90;;;;;;5124561;27;38115;-76
2020/12/29 09:14:30;;;;;;;37.77;27.83;;;5.10;99.90;;;;;;5138665;27;38159;-75
2020/12/29 09:17:06;;;;;;;35.57;27.17;;;5.10;99.90;;;;;;5122638;27;38979;-77
2020/12/29 09:19:34;;;;;;;37.93;27.17;;;5.10;99.90;;;;;;5099841;27;47654;-75
2020/12/29 09:22:07;;;;;;;51.73;32.87;;;5.10;99.90;;;;;;5123744;27;39052;-77
2020/12/29 09:24:34;;;;;;;41.47;29.13;;;5.10;99.90;;;;;;5112139;27;47386;-77
2020/12/29 09:27:01;;;;;;;38.37;27.80;;;5.10;99.90;;;;;;5121035;27;38488;-76
2020/12/29 09:29:27;;;;;;;42.43;26.60;;;5.10;99.90;;;;;;5121600;27;47260;-75
2020/12/29 09:31:55;;;;;;;37.20;27.97;;;5.10;99.90;;;;;;5119820;27;38291;-76
2020/12/29 09:34:21;;;;;;;31.17;23.80;;;5.10;99.90;;;;;;5118094;27;41822;-75
2020/12/29 09:36:47;;;;;;;44.60;32.27;;;5.10;99.90;;;;;;5109683;27;39385;-75
2020/12/29 09:39:14;;;;;;;39.97;30.97;;;5.10;99.90;;;;;;5116590;27;39373;-74
2020/12/29 09:41:40;;;;;;;41.10;26.47;;;5.10;99.90;;;;;;5127472;27;38799;-75
2020/12/29 09:44:06;;;;;;;30.00;23.30;;;5.10;99.90;;;;;;5110518;27;39132;-75
2020/12/29 09:46:39;;;;;;;32.17;23.70;;;5.10;99.90;;;;;;5114658;27;37232;-76
2020/12/29 09:49:05;;;;;;;;;;;5.10;99.90;;;;;;5117965;27;36694;-76
2020/12/29 09:51:32;;;;;;;32.23;21.93;;;5.20;99.90;;;;;;5117225;27;37092;-76
2020/12/29 09:53:58;;;;;;;30.50;23.50;;;5.20;99.90;;;;;;5116168;27;40111;-76
2020/12/29 09:56:25;;;;;;;34.83;25.00;;;5.20;99.90;;;;;;5122269;27;38426;-75
2020/12/29 09:58:51;;;;;;;25.10;19.90;;;5.10;99.90;;;;;;5124468;27;39497;-75
2020/12/29 10:01:17;;;;;;;30.40;22.50;;;5.20;99.90;;;;;;5110095;27;38034;-75
2020/12/29 10:03:43;;;;;;;32.73;24.23;;;5.20;99.90;;;;;;5135033;27;38768;-76
2020/12/29 10:06:10;;;;;;;32.77;24.03;;;5.20;99.90;;;;;;5116441;27;39931;-74
2020/12/29 10:08:37;;;;;;;29.33;23.67;;;5.30;99.90;;;;;;5123838;27;38420;-75
2020/12/29 10:11:05;;;;;;;30.87;22.20;;;5.40;99.90;;;;;;5121895;27;39024;-75
2020/12/29 10:13:31;;;;;;;32.63;24.10;;;5.40;99.90;;;;;;5115914;27;38034;-74
2020/12/29 10:15:57;;;;;;;28.13;21.93;;;5.50;99.90;;;;;;5125460;27;38214;-75
2020/12/29 10:18:24;;;;;;;25.83;19.23;;;5.60;99.90;;;;;;5126199;27;37569;-74
2020/12/29 10:20:51;;;;;;;27.73;21.47;;;5.60;99.90;;;;;;5125644;27;38400;-75
2020/12/29 10:23:18;;;;;;;31.07;22.73;;;5.60;99.90;;;;;;5123096;27;39407;-76
2020/12/29 10:25:44;;;;;;;30.27;22.30;;;5.60;99.90;;;;;;5124896;27;38545;-75
2020/12/29 10:28:10;;;;;;;27.63;21.53;;;5.60;99.90;;;;;;5127494;27;37282;-74
2020/12/29 10:30:36;;;;;;;27.67;20.40;;;5.50;99.90;;;;;;5106473;27;38745;-75
2020/12/29 10:33:02;;;;;;;35.67;25.57;;;5.50;99.90;;;;;;5131399;27;39272;-76
2020/12/29 10:35:28;;;;;;;39.80;28.03;;;5.50;99.90;;;;;;5114563;27;37507;-75
2020/12/29 10:37:54;;;;;;;30.77;23.43;;;5.50;99.90;;;;;;5117346;27;36949;-75
2020/12/29 10:40:20;;;;;;;27.93;21.70;;;5.50;99.90;;;;;;5127593;27;39304;-76
2020/12/29 10:42:47;;;;;;;27.17;20.33;;;5.50;99.90;;;;;;5143555;27;38834;-77
2020/12/29 10:45:13;;;;;;;29.23;21.10;;;5.50;99.90;;;;;;5124695;27;39262;-77
2020/12/29 10:47:39;;;;;;;25.27;19.17;;;5.50;99.90;;;;;;5141683;27;38607;-75
2020/12/29 10:50:05;;;;;;;23.97;18.67;;;5.50;99.90;;;;;;5150723;27;37459;-76
2020/12/29 10:52:31;;;;;;;23.10;17.43;;;5.50;99.90;;;;;;5129625;27;40852;-76
2020/12/29 10:54:58;;;;;;;22.97;17.17;;;5.50;99.90;;;;;;5132777;27;39310;-76
2020/12/29 10:57:24;;;;;;;25.47;18.10;;;5.60;99.90;;;;;;5133972;27;38385;-78
2020/12/29 10:59:50;;;;;;;25.47;17.40;;;5.60;99.90;;;;;;5129671;27;36893;-77
2020/12/29 11:02:16;;;;;;;24.27;16.70;;;5.60;99.90;;;;;;5116274;27;39559;-79
2020/12/29 11:04:42;;;;;;;23.17;17.90;;;5.60;99.90;;;;;;5127630;27;37790;-80
2020/12/29 11:07:08;;;;;;;31.70;16.87;;;5.70;99.90;;;;;;5139302;27;36551;-83
2020/12/29 11:09:34;;;;;;;27.50;18.30;;;5.80;99.90;;;;;;5129640;27;38558;-86
2020/12/29 11:12:00;;;;;;;18.83;15.00;;;5.90;99.90;;;;;;5119568;27;39977;-78
2020/12/29 11:14:26;;;;;;;23.37;16.60;;;5.80;99.90;;;;;;5145822;27;48554;-75
2020/12/29 11:16:53;;;;;;;24.07;15.17;;;5.80;99.90;;;;;;5126231;27;38072;-78
2020/12/29 11:19:19;;;;;;;22.00;14.57;;;5.80;99.90;;;;;;5121465;27;39020;-75
2020/12/29 11:21:46;;;;;;;21.47;14.87;;;5.80;99.90;;;;;;5145758;27;38722;-75
2020/12/29 11:24:12;;;;;;;21.93;15.27;;;5.80;99.90;;;;;;5141482;27;39776;-78
2020/12/29 11:26:38;;;;;;;22.43;15.90;;;5.70;99.90;;;;;;5144386;27;38850;-79
2020/12/29 11:29:06;;;;;;;21.63;14.60;;;5.80;99.90;;;;;;5142915;27;37663;-78
2020/12/29 11:31:32;;;;;;;20.83;15.43;;;5.80;99.90;;;;;;5120274;27;39664;-82
2020/12/29 11:33:58;;;;;;;19.10;14.23;;;5.90;99.90;;;;;;5139617;27;38818;-80
2020/12/29 11:36:24;;;;;;;19.00;12.30;;;6.00;99.90;;;;;;5113837;27;39607;-77
2020/12/29 11:38:50;;;;;;;18.40;12.97;;;6.00;99.90;;;;;;5136798;27;38230;-79
2020/12/29 11:41:17;;;;;;;14.97;11.03;;;6.00;99.90;;;;;;5143038;27;38312;-80
2020/12/29 11:43:43;;;;;;;16.40;11.37;;;6.10;99.90;;;;;;5125071;27;38633;-78
2020/12/29 11:46:10;;;;;;;17.30;9.57;;;6.20;99.90;;;;;;5117751;27;39525;-79
2020/12/29 11:48:36;;;;;;;15.57;9.73;;;6.20;99.90;;;;;;5123879;27;37867;-78
2020/12/29 11:51:07;;;;;;;15.10;9.33;;;6.20;99.90;;;;;;5119724;27;39353;-80
2020/12/29 11:53:33;;;;;;;10.70;7.53;;;6.30;99.90;;;;;;5131016;27;38186;-83
2020/12/29 11:55:59;;;;;;;15.10;7.50;;;6.60;99.90;;;;;;5138204;27;39338;-80
2020/12/29 11:58:26;;;;;;;9.80;6.87;;;6.70;99.90;;;;;;5119726;27;39384;-80
2020/12/29 12:00:53;;;;;;;9.30;5.80;;;7.00;99.90;;;;;;5119534;27;38498;-86
2020/12/29 12:03:19;;;;;;;9.53;6.00;;;7.10;99.90;;;;;;5127103;27;38445;-80
2020/12/29 12:05:45;;;;;;;8.40;4.70;;;7.10;99.90;;;;;;5128329;27;38376;-79
2020/12/29 12:08:11;;;;;;;6.90;4.57;;;7.10;99.90;;;;;;5134518;27;37600;-78
2020/12/29 12:10:37;;;;;;;8.67;5.90;;;7.10;99.90;;;;;;5135412;27;39057;-79
2020/12/29 12:13:03;;;;;;;8.50;6.17;;;7.00;99.90;;;;;;5144000;27;38974;-77
2020/12/29 12:15:29;;;;;;;11.93;6.07;;;6.90;99.90;;;;;;5119857;27;38958;-79
2020/12/29 12:17:55;;;;;;;13.27;6.97;;;6.80;99.90;;;;;;5121044;27;37891;-77
2020/12/29 12:20:21;;;;;;;8.83;6.13;;;6.80;99.90;;;;;;5139182;27;39467;-76
2020/12/29 12:22:47;;;;;;;8.73;6.70;;;6.90;99.90;;;;;;5126271;27;38932;-79
2020/12/29 12:25:14;;;;;;;17.70;8.00;;;6.90;99.90;;;;;;5124567;27;38451;-83
2020/12/29 12:27:40;;;;;;;10.07;6.47;;;6.90;99.90;;;;;;5116761;27;38937;-80
2020/12/29 12:30:06;;;;;;;10.00;6.20;;;6.90;99.90;;;;;;5135009;27;39729;-81
2020/12/29 12:32:32;;;;;;;9.80;6.53;;;6.90;99.90;;;;;;5145056;27;38116;-80
2020/12/29 12:34:58;;;;;;;8.70;5.67;;;6.80;99.90;;;;;;5123734;27;39480;-78
2020/12/29 12:37:24;;;;;;;6.93;5.60;;;6.70;99.90;;;;;;5138768;27;37679;-78
2020/12/29 12:39:50;;;;;;;9.03;5.97;;;6.70;99.90;;;;;;5146118;27;38429;-78
2020/12/29 12:42:20;;;;;;;10.43;6.23;;;6.60;99.90;;;;;;5118582;27;37662;-80
2020/12/29 12:44:46;;;;;;;11.93;6.10;;;6.50;99.90;;;;;;5137732;27;37861;-80